Henry B. Bigelow — WTDF — position and weather

sailwx.info

Track history (hours):
 
Tides and Currents Weather Stations Pressure Air Temp Water Temp Dewpoint Dewpoint Depression Visibility Wind Speed Wind Dir Waves Ship Positions

Oceanographic research ship Henry B. Bigelow (USA)

Ship's website: http://www.moc.noaa.gov/hb/

Last reported at 2017-Apr-23 15:00 UTC. Time now 2017-Apr-23 15:47 UTC.
Position N 42°30' W 066°36'.

Type: Other ship. MMSI: 369991000.

Wind from 350 at 19 knots

Barometer 1017.4 mb
Air temperature 4.8 ° C
Visibility: greater than 10.8 NM
Dewpoint 3.5 ° C
Water temperature 3.7 ° C

Date/timePositionNaut miles runAvg speedWind from/ knotsBaromVisibWave heightAir tempDewpointWater temp
2017-Apr-23 15:00N 42°30' W 066°36'4132.7 350 / 191017.410.8 4.8 3.5 3.7
2017-Apr-23 14:58N 42°30' W 066°42'4 4.5 360 / 141018.1 3.3 3.8
2017-Apr-23 13:59N 42°30' W 066°48'9 8.8 340 / 211016.5 3.3 4.1
2017-Apr-23 12:59N 42°30' W 067°00'7 7.5 330 / 211015.9 3.6 5.5
2017-Apr-23 11:59N 42°24' W 067°06'4 4.4 330 / 121015.5 3.8 5.2
2017-Apr-23 10:59N 42°24' W 067°12'4 4.4 350 / 221014.8 3.4 5.4
2017-Apr-23 09:59N 42°24' W 067°06'9 9.0 350 / 221013.5 3.5 5.2
2017-Apr-23 09:00N 42°24' W 066°54'7 7.5 340 / 191012.7 3.3 5.4
2017-Apr-23 08:00N 42°18' W 066°48'0 0.0 350 / 191011.9 2.9 5.5
2017-Apr-23 07:00N 42°18' W 066°48'6 6.0 350 / 231011.0 2.9 5.5
2017-Apr-23 06:00N 42°12' W 066°48'4 4.4 360 / 201010.8 3.1 5.6
2017-Apr-23 05:00N 42°12' W 066°42'7 5.9 010 / 211009.8 2.9 5.7
2017-Apr-23 03:44N 42°06' W 066°36'710.2 360 / 201009.4 3.5 6.0
2017-Apr-23 03:00N 42°00' W 066°30'416.7 310 / 91009.0 1.1 6.3 6.3 6.0
2017-Apr-23 02:44N 42°00' W 066°36'0 0.0 310 / 71009.3 5.3 6.1
2017-Apr-23 01:45N 42°00' W 066°36'0 0.0 340 / 31009.2 5.3 6.0
2017-Apr-23 00:45N 42°00' W 066°36'15 7.5 070 / 111008.8 5.8 6.0
2017-Apr-22 22:45N 42°12' W 066°24'4 4.4 080 / 251008.6 4.7 5.8
2017-Apr-22 21:45N 42°12' W 066°30'1114.3 090 / 251009.7 4.3 5.7
2017-Apr-22 21:00N 42°18' W 066°18'417.8 070 / 191009.8 1.1 4.8 4.8 3.9
2017-Apr-22 20:45N 42°18' W 066°24'0 0.0 080 / 241011.5 4.2 3.4
2017-Apr-22 19:46N 42°18' W 066°24'6 6.0 060 / 221011.8 3.9 4.2
2017-Apr-22 18:46N 42°24' W 066°24'6 6.0 090 / 261012.9 3.8 4.3
2017-Apr-22 17:46N 42°18' W 066°24'7 7.5 090 / 261013.3 3.9 4.2
2017-Apr-22 16:46N 42°12' W 066°18'7 7.5 070 / 231013.9 4.3 5.6
2017-Apr-22 15:46N 42°06' W 066°12'4 4.5 080 / 241014.1 4.9 5.3
2017-Apr-22 14:46N 42°06' W 066°18'9 9.1 090 / 211015.0 4.9 6.1
2017-Apr-22 13:47N 42°06' W 066°06'0 0.0 100 / 251015.8 5.7 5.8
2017-Apr-22 12:47N 42°06' W 066°06'0 0.0 070 / 121014.9 5.1 5.8
2017-Apr-22 11:47N 42°06' W 066°06'6 6.0 120 / 191015.5 6.1 5.6
2017-Apr-22 10:47N 42°00' W 066°06'0 0.0 110 / 211015.1 5.1 5.7
2017-Apr-22 09:47N 42°00' W 066°06'9 8.9 100 / 191015.0 5.7 5.8
2017-Apr-22 08:47N 42°00' W 065°54'4 4.5 120 / 201015.6 4.4 5.8
2017-Apr-22 07:48N 42°00' W 066°00'9 8.9 080 / 231015.3 4.7 5.8
2017-Apr-22 06:48N 42°00' W 065°48'0 0.0 110 / 151016.1 3.4 5.1
2017-Apr-22 05:48N 42°00' W 065°48'6 6.0 110 / 191016.1 3.1 2.5
2017-Apr-22 04:48N 41°54' W 065°48'4 4.5 120 / 141018.0 3.4 3.3
2017-Apr-22 03:48N 41°54' W 065°42'4 4.5 100 / 181018.0 3.4 3.4
2017-Apr-22 02:48N 41°54' W 065°48'7 7.5 090 / 191018.6 3.6 3.6
2017-Apr-22 01:48N 41°48' W 065°54'4 4.5 090 / 181018.9 3.9 3.5
2017-Apr-22 00:48N 41°48' W 066°00'4 5.6 070 / 101018.9 4.2 4.2
2017-Apr-22 00:00N 41°48' W 065°54'1512.7 090 / 191019.6 5.4 4.8 3.7 4.1
2017-Apr-21 22:49N 41°36' W 066°06'1312.8 080 / 211020.1 3.6 2.6
2017-Apr-21 21:49N 41°24' W 066°12'1212.0 080 / 141020.5 5.2 5.0
2017-Apr-21 20:49N 41°12' W 066°12'5 4.6 090 / 161020.2 5.9 5.8
2017-Apr-21 19:50N 41°12' W 066°18'0 0.0 080 / 151020.0 5.8 5.6
2017-Apr-21 18:50N 41°12' W 066°18'6 6.0 080 / 151020.2 5.7 5.8
2017-Apr-21 17:50N 41°18' W 066°18'0 0.0 080 / 161021.1 5.7 5.7
2017-Apr-21 16:50N 41°18' W 066°18'5 4.5 090 / 141021.3 5.7 5.8
2017-Apr-21 15:50N 41°18' W 066°24'1313.0 080 / 141021.7 5.6 5.6
2017-Apr-21 14:51N 41°30' W 066°18'6 6.0 060 / 161022.5 4.9 5.1
2017-Apr-21 13:51N 41°36' W 066°18'7 7.5 080 / 131022.5 4.9 4.2
2017-Apr-21 12:51N 41°42' W 066°24'6 6.0 060 / 181022.5 3.8 5.1
2017-Apr-21 11:51N 41°48' W 066°24'7 7.5 030 / 101022.9 4.2 5.8
2017-Apr-21 10:51N 41°42' W 066°30'0 0.0 090 / 201021.8 3.9 5.8
2017-Apr-21 09:51N 41°42' W 066°30'9 9.1 080 / 211021.1 3.8 5.9
2017-Apr-21 08:52N 41°42' W 066°42'9 9.0 090 / 201020.2 4.7 5.5
2017-Apr-21 07:52N 41°42' W 066°54'0 0.0 090 / 171020.5 4.8 5.7
2017-Apr-21 06:52N 41°42' W 066°54'7 8.6 090 / 211020.5 4.9 5.7
2017-Apr-21 06:00N 41°36' W 067°00'433.7 080 / 191020.3 5.4 7.5 4.4 5.8
2017-Apr-21 05:52N 41°36' W 067°06'1110.8 080 / 191020.7 5.6 5.8
2017-Apr-21 04:52N 41°30' W 067°18'6 6.0 090 / 221020.3 5.8 6.4
2017-Apr-21 03:52N 41°36' W 067°18'1314.8 090 / 161021.3 6.2 6.4
2017-Apr-21 03:00N 41°24' W 067°12'538.6 090 / 131021.1 5.4 7.0 5.4 6.3
2017-Apr-21 02:53N 41°24' W 067°18'7 7.5 090 / 151020.8 6.1 6.4
2017-Apr-21 01:53N 41°30' W 067°12'7 7.5 100 / 171020.9 5.8 6.4
2017-Apr-21 00:53N 41°24' W 067°06'8 3.8 080 / 151020.9 5.7 5.8
2017-Apr-20 22:53N 41°18' W 067°12'1515.3 100 / 91020.5 5.3 5.7
2017-Apr-20 21:54N 41°06' W 067°24'5 5.0 120 / 141020.8 5.6 5.7
2017-Apr-20 21:00N 41°06' W 067°18'545.2 110 / 91020.5 0.3 6.0 6.0 5.7
2017-Apr-20 20:54N 41°06' W 067°24'8 7.5 120 / 111021.0 5.6 5.7
2017-Apr-20 19:54N 41°12' W 067°18'1413.5 120 / 141021.0 5.9 5.6
2017-Apr-20 18:54N 41°12' W 067°00'8 7.5 180 / 91023.0 5.8 5.4
2017-Apr-20 17:54N 41°18' W 066°54'0 0.0 160 / 81023.8 6.6 5.8
2017-Apr-20 16:54N 41°18' W 066°54'8 7.6 130 / 81023.8 5.9 5.6
2017-Apr-20 15:55N 41°24' W 066°48'1111.8 120 / 51025.0 6.5 5.6
2017-Apr-20 15:00N 41°18' W 066°36'554.1 090 / 21023.810.8 9.5 7.0 5.5
2017-Apr-20 14:55N 41°18' W 066°42'0 0.0 100 / 31025.2 7.7 5.5
2017-Apr-20 13:55N 41°18' W 066°42'6 6.0 140 / 71025.6 5.8 5.5
2017-Apr-20 12:55N 41°12' W 066°42'1212.0 170 / 71025.7 6.1 5.7
2017-Apr-20 11:55N 41°00' W 066°42'5 4.5 140 / 41025.6 7.2 5.4
2017-Apr-20 10:55N 41°00' W 066°36'0 0.0 160 / 61025.7 6.5 5.3
2017-Apr-20 09:55N 41°00' W 066°36'5 4.6 100 / 61025.8 6.7 5.8
2017-Apr-20 08:56N 41°00' W 066°30'5 4.5 100 / 51026.2 6.6 6.2
2017-Apr-20 07:56N 41°00' W 066°24'0 0.0 130 / 91026.3 6.3 10.0
2017-Apr-20 06:56N 41°00' W 066°24'8 7.5 180 / 41027.0 5.9 8.7
2017-Apr-20 05:56N 40°54' W 066°30'0 0.0 160 / 51027.1 5.9 8.5
2017-Apr-20 04:56N 40°54' W 066°30'0 0.0 130 / 61028.0 5.8 8.2
2017-Apr-20 03:56N 40°54' W 066°30'8 7.5 140 / 81028.3 6.1 9.5
2017-Apr-20 02:56N 40°48' W 066°36'5 4.5 140 / 131028.6 5.3 10.0
2017-Apr-20 01:56N 40°48' W 066°42'5 4.5 110 / 81029.4 5.2 8.5
2017-Apr-20 00:56N 40°48' W 066°48'6 3.0 110 / 71030.5 4.9 7.7
2017-Apr-19 22:57N 40°42' W 066°48'0 0.0 080 / 61031.7 4.8 8.2
2017-Apr-19 21:57N 40°42' W 066°48'8 7.5 090 / 71031.9 5.2 7.0
2017-Apr-19 20:57N 40°36' W 066°54'5 4.6 060 / 81032.4 4.9 6.9
2017-Apr-19 19:57N 40°36' W 067°00'5 4.6 080 / 101032.2 4.0 5.8
2017-Apr-19 18:57N 40°36' W 067°06'0 0.0 060 / 111032.6 4.0 6.4
2017-Apr-19 17:57N 40°36' W 067°06'8 7.7 050 / 141032.6 3.3 5.8
2017-Apr-19 16:58N 40°42' W 067°12'5 4.5 040 / 161033.5 2.9 5.8
2017-Apr-19 15:58N 40°42' W 067°18'6 6.2 050 / 151034.2 2.7 5.7
2017-Apr-19 15:00N 40°36' W 067°18'5136.7 080 / 191034.610.8 4.3 0.8 5.6
2017-Apr-19 14:58N 40°36' W 067°24'5 4.6 070 / 161034.4 2.7 5.6
2017-Apr-19 13:58N 40°36' W 067°30'8 7.5 060 / 171034.9 3.4 5.9
2017-Apr-19 12:58N 40°30' W 067°36'5 4.6 070 / 171035.1 3.4 5.9
2017-Apr-19 11:59N 40°30' W 067°30'8 7.5 050 / 171034.8 3.9 6.7
2017-Apr-19 10:59N 40°24' W 067°36'0 0.0 060 / 161034.2 4.2 8.1
2017-Apr-19 09:59N 40°24' W 067°36'1110.9 030 / 201032.7 4.0 6.9
2017-Apr-19 08:59N 40°30' W 067°48'6 6.0 050 / 221032.4 3.8 5.6
2017-Apr-19 07:59N 40°24' W 067°48'1312.8 050 / 171032.6 3.8 5.7
2017-Apr-19 06:59N 40°36' W 067°42'6 6.0 030 / 131032.0 3.8 5.6
2017-Apr-19 05:59N 40°42' W 067°42'0 0.0 050 / 171032.1 3.5 5.8
2017-Apr-19 04:59N 40°42' W 067°42'1313.0 050 / 171032.0 3.3 5.5
2017-Apr-19 04:00N 40°54' W 067°48'0 0.0 050 / 121032.4 3.4 5.9
2017-Apr-19 03:00N 40°54' W 067°48'8 7.5 060 / 171032.3 3.0 5.9
2017-Apr-19 02:00N 40°48' W 067°54'6 6.0 060 / 181031.5 3.4 5.8
2017-Apr-19 01:00N 40°42' W 067°54'5 4.5 020 / 51031.5 3.8 6.1
2017-Apr-19 00:00N 40°42' W 068°00'6 5.9 020 / 141031.0 4.3 6.3
2017-Apr-18 22:59N 40°48' W 068°00'9 7.2 060 / 131030.2 4.3 6.4
2017-Apr-18 21:43N 40°48' W 068°12'5 6.3 060 / 161029.4 4.8 5.8
2017-Apr-18 21:00N 40°48' W 068°18'517.0 010 / 191030.4 5.4 5.3 4.7 6.0
2017-Apr-18 20:44N 40°48' W 068°24'9 9.1 360 / 181029.0 5.2 6.0
2017-Apr-18 19:44N 40°48' W 068°36'0 0.0 020 / 141029.5 5.4 6.3
2017-Apr-18 18:44N 40°48' W 068°36'8 7.5 040 / 151029.1 5.3 6.3
2017-Apr-18 17:44N 40°54' W 068°42'0 0.0 010 / 61029.2 6.2 6.4
2017-Apr-18 16:44N 40°54' W 068°42'0 0.0 360 / 91028.0 6.1 6.3
2017-Apr-18 15:45N 40°54' W 068°42'8 7.5 350 / 121028.2 6.2 6.3
2017-Apr-18 14:45N 41°00' W 068°48'8 7.5 360 / 121027.9 6.5 6.4
2017-Apr-18 13:45N 41°06' W 068°54'5 4.5 050 / 161027.3 6.5 7.0
2017-Apr-18 12:45N 41°06' W 068°48'0 0.0 030 / 171026.4 6.5 7.0
2017-Apr-18 11:45N 41°06' W 068°48'1110.8 010 / 141028.1 6.8 6.9
2017-Apr-18 10:45N 41°12' W 069°00'6 6.1 010 / 121018.1 6.3 6.7
2017-Apr-18 09:46N 41°18' W 069°00'8 7.5 050 / 121020.1 6.2 6.4
2017-Apr-18 08:46N 41°12' W 068°54'9 9.0 030 / 181016.6 6.6 7.1
2017-Apr-18 07:46N 41°12' W 068°42'5 4.5 040 / 111021.0 6.7 7.1
2017-Apr-18 06:46N 41°12' W 068°36'6 6.0 040 / 161015.4 6.7 7.0
2017-Apr-18 05:46N 41°18' W 068°36'0 0.0 040 / 161015.1 6.8 7.0
2017-Apr-18 04:46N 41°18' W 068°36'6 6.0 040 / 191014.6 6.8 7.2
2017-Apr-18 03:46N 41°24' W 068°36'8 7.6 010 / 181018.5 7.9 7.2
2017-Apr-18 02:47N 41°18' W 068°30'9 9.0 360 / 101014.5 7.9 7.3
2017-Apr-18 01:47N 41°18' W 068°18'0 0.0 350 / 51016.2 8.3 7.7
2017-Apr-18 00:47N 41°18' W 068°18'11 5.4 300 / 51011.4 8.4 6.8
2017-Apr-17 22:47N 41°12' W 068°06'5 4.5 260 / 111008.9 8.4 6.3
2017-Apr-17 21:47N 41°12' W 068°00'0 0.0 240 / 201022.2 8.1 6.5
2017-Apr-17 21:00N 41°12' W 068°00'837.5 250 / 131011.9 5.4 11.0 7.2 6.3
2017-Apr-17 20:48N 41°18' W 068°06'1110.8 240 / 121017.6 7.6 6.3
2017-Apr-17 19:48N 41°24' W 068°18'7 7.5 260 / 81021.3 8.8 6.7
2017-Apr-17 18:48N 41°30' W 068°24'7 7.5 260 / 131020.5 9.1 7.5
2017-Apr-17 17:48N 41°36' W 068°30'0 0.0 260 / 171027.6 9.3 7.6
2017-Apr-17 16:48N 41°36' W 068°30'4 4.6 260 / 161015.5 9.1 7.4
2017-Apr-17 15:49N 41°36' W 068°36'7 7.5 250 / 171022.8 9.3 6.9
2017-Apr-17 14:49N 41°42' W 068°42'0 0.0 260 / 141021.0 9.3 6.8
2017-Apr-17 13:49N 41°42' W 068°42'4 4.5 270 / 211020.9 14.4 6.7
2017-Apr-17 12:49N 41°42' W 068°48'0 0.0 260 / 201023.1 9.5 6.9
2017-Apr-17 11:49N 41°42' W 068°48'7 7.6 230 / 141024.3 10.2 6.8
2017-Apr-17 10:50N 41°48' W 068°54'7 7.5 250 / 141026.8 9.0 6.8
2017-Apr-17 09:50N 41°54' W 069°00'0 0.0 250 / 151030.1 9.0 7.0
2017-Apr-17 08:50N 41°54' W 069°00'1110.8 270 / 151029.1 10.0 6.9
2017-Apr-17 07:50N 41°48' W 069°12'9 9.1 260 / 211037.2 9.9 6.7
2017-Apr-17 06:51N 41°48' W 069°24'1313.4 250 / 161040.0 7.7 6.2
2017-Apr-17 05:51N 41°48' W 069°42'7 7.5 240 / 161044.1 8.9 5.8
2017-Apr-17 04:51N 41°42' W 069°48'0 0.0 290 / 191040.9 18.1 6.5
2017-Apr-17 03:51N 41°42' W 069°48'7 7.5 250 / 151042.3 16.6 6.2
2017-Apr-17 02:51N 41°48' W 069°54'6 6.1 220 / 241045.0 15.9 6.4
2017-Apr-17 01:52N 41°42' W 069°54'0 0.0 220 / 121050.6 11.3 5.8
2017-Apr-17 00:52N 41°42' W 069°54'19 9.5 230 / 211057.2 10.8 6.1
2017-Apr-16 22:52N 41°36' W 069°30'4 4.6 200 / 181077.4 8.1 6.2
2017-Apr-16 21:53N 41°36' W 069°24'0 0.0 190 / 161078.9 8.4 6.0
2017-Apr-16 20:53N 41°36' W 069°24'1212.0 170 / 101082.2 7.9 6.0
2017-Apr-16 19:53N 41°24' W 069°24'0 0.0 220 / 171086.5 8.5 5.3
2017-Apr-16 18:54N 41°24' W 069°24'0 0.0 230 / 201081.3 7.6 5.5
2017-Apr-16 17:54N 41°24' W 069°24'0 0.0 220 / 241082.7 7.6 5.5
2017-Apr-16 16:54N 41°24' W 069°24'0 0.0 220 / 211084.7 7.7 5.3
2017-Apr-16 15:54N 41°24' W 069°24'5 5.0 220 / 211089.2 7.5 5.2
2017-Apr-16 15:00N 41°24' W 069°18'554.0 230 / 241013.1 0.0 8.7 8.7 5.1
2017-Apr-16 14:55N 41°24' W 069°24'8 7.5 230 / 261096.8 7.0 5.1
2017-Apr-16 13:55N 41°18' W 069°18'6 6.0 220 / 17 6.8 5.1
2017-Apr-16 12:55N 41°12' W 069°18'0 0.0 220 / 11 6.8 5.4
2017-Apr-16 11:55N 41°12' W 069°18'0 0.0 230 / 19 7.1 5.4
2017-Apr-16 10:56N 41°12' W 069°18'0 0.0 250 / 9 7.6 5.4
2017-Apr-16 09:56N 41°12' W 069°18'6 6.0 260 / 211061.5 8.3 5.4
2017-Apr-16 08:56N 41°06' W 069°18'0 0.0 210 / 141019.6 9.0 5.6
2017-Apr-16 07:57N 41°06' W 069°18'0 0.0 230 / 251020.4 9.0 5.6
2017-Apr-16 06:57N 41°06' W 069°18'0 0.0 220 / 291020.5 9.0 5.6
2017-Apr-16 05:57N 41°06' W 069°18'8 7.6 210 / 261020.6 8.8 5.5
2017-Apr-16 04:58N 41°00' W 069°12'6 6.0 200 / 231022.0 8.3 6.1
2017-Apr-16 03:58N 41°06' W 069°12'1212.2 210 / 231022.8 8.1 6.0
2017-Apr-16 02:59N 40°54' W 069°12'5 4.6 200 / 201024.1 8.5 5.9
2017-Apr-16 02:00N 40°54' W 069°18'6 4.7 210 / 211024.6 8.4 6.1
2017-Apr-16 00:44N 40°48' W 069°18'11 5.5 200 / 221024.1 8.5 5.9
2017-Apr-15 22:46N 40°42' W 069°06'0 0.0 210 / 141025.7 8.8 6.5
2017-Apr-15 21:46N 40°42' W 069°06'0 0.0 180 / 91029.5 8.6 6.6
2017-Apr-15 20:47N 40°42' W 069°06'0 0.0 190 / 141028.4 8.0 6.8
2017-Apr-15 19:47N 40°42' W 069°06'0 0.0 200 / 151022.8 7.7 7.0
2017-Apr-15 18:48N 40°42' W 069°06'5 4.6 220 / 161035.2 8.8 6.9
2017-Apr-15 17:49N 40°42' W 069°12'0 0.0 220 / 151037.6 8.4 7.1
2017-Apr-15 16:49N 40°42' W 069°12'8 7.7 230 / 131038.4 9.4 6.6
2017-Apr-15 15:50N 40°36' W 069°18'5 5.5 220 / 81038.4 8.6 6.8
2017-Apr-15 15:00N 40°36' W 069°12'527.3 210 / 91030.610.8 8.9 6.3 6.6
2017-Apr-15 14:50N 40°36' W 069°18'0 0.0 240 / 121034.2 7.6 6.6
2017-Apr-15 13:50N 40°36' W 069°18'1515.2 260 / 71033.6 7.1 6.3
2017-Apr-15 12:51N 40°30' W 069°00'0 0.0 270 / 81032.9 7.1 6.4
2017-Apr-15 11:51N 40°30' W 069°00'5 4.6 230 / 51031.3 6.6 6.3
2017-Apr-15 10:52N 40°30' W 068°54'1514.9 270 / 81030.4 6.7 6.3
2017-Apr-15 09:52N 40°36' W 068°36'0 0.0 290 / 91029.1 6.2 5.9
2017-Apr-15 08:52N 40°36' W 068°36'0 0.0 290 / 101028.1 6.3 5.8
2017-Apr-15 07:53N 40°36' W 068°36'1212.0 300 / 91027.3 6.3 6.1
2017-Apr-15 06:53N 40°24' W 068°36'0 0.0 300 / 71026.5 6.6 6.9
2017-Apr-15 05:53N 40°24' W 068°36'8 7.7 280 / 81026.0 6.1 7.0
2017-Apr-15 04:54N 40°18' W 068°42'0 0.0 290 / 91025.9 6.3 7.6
2017-Apr-15 03:54N 40°18' W 068°42'5 4.7 320 / 61025.3 6.6 8.0
2017-Apr-15 02:55N 40°18' W 068°48'6 6.0 010 / 61027.0 6.6 8.2
2017-Apr-15 01:55N 40°12' W 068°48'5 4.6 350 / 81025.7 6.5 8.5
2017-Apr-15 00:55N 40°12' W 068°42'910.0 1024.7 6.6
2017-Apr-15 00:00N 40°12' W 068°30'5 4.3 330 / 91028.8 5.4 8.0 5.6 8.5
2017-Apr-14 22:56N 40°12' W 068°36'6 6.1 330 / 81025.7 7.5 8.3
2017-Apr-14 21:57N 40°06' W 068°36'5 4.8 290 / 41024.0 8.3 8.5
2017-Apr-14 21:00N 40°06' W 068°30'591.8 310 / 91026.610.8 9.1 7.9 8.5
2017-Apr-14 20:57N 40°06' W 068°36'1413.8 310 / 71027.9 9.7 8.8
2017-Apr-14 19:57N 40°06' W 068°54'9 9.3 330 / 51030.1 7.4 7.9
2017-Apr-14 18:58N 40°06' W 069°06'0 0.0 340 / 41034.0 7.4 7.6
2017-Apr-14 17:58N 40°06' W 069°06'5 4.6 330 / 51033.1 8.3 7.7
2017-Apr-14 16:58N 40°06' W 069°12'9 9.3 340 / 51034.7 7.1 7.0
2017-Apr-14 15:59N 40°06' W 069°24'0 0.0 310 / 31033.7 8.3 7.5
2017-Apr-14 15:00N 40°06' W 069°24'0 0.0 010 / 91029.310.8 9.5 6.1 7.0
2017-Apr-14 14:59N 40°06' W 069°24'1313.1 010 / 71032.1 7.0 7.1
2017-Apr-14 14:00N 39°54' W 069°30'5 4.6 360 / 101034.6 6.7 6.6
2017-Apr-14 13:00N 39°54' W 069°36'0 0.0 350 / 101032.2 9.0 6.5
2017-Apr-14 11:44N 39°54' W 069°36'5 4.6 350 / 91028.7 7.0 6.6
2017-Apr-14 10:44N 39°54' W 069°42'5 4.7 350 / 111027.8 6.8 7.0
2017-Apr-14 09:45N 39°54' W 069°48'0 0.0 340 / 71026.7 6.6 7.0
2017-Apr-14 08:45N 39°54' W 069°48'1111.0 320 / 51025.8 6.6 6.9
2017-Apr-14 07:45N 40°00' W 070°00'8 7.7 310 / 61025.1 6.3 6.8
2017-Apr-14 06:46N 40°06' W 069°54'5 6.0 310 / 91024.1 6.5 6.9
2017-Apr-14 06:00N 40°06' W 070°00'519.7 300 / 91027.0 5.4 7.5 6.5 6.7
2017-Apr-14 05:46N 40°06' W 070°06'0 0.0 290 / 81024.3 7.7 6.7
2017-Apr-14 04:46N 40°06' W 070°06'8 7.7 280 / 31024.6 6.8 7.5
2017-Apr-14 03:47N 40°00' W 070°12'5 4.6 280 / 81024.5 7.0 7.3
2017-Apr-14 02:47N 40°00' W 070°18'0 0.0 260 / 41024.1 7.4 7.6
2017-Apr-14 01:47N 40°00' W 070°18'6 6.1 320 / 91022.6 7.4 8.3
2017-Apr-14 00:48N 39°54' W 070°18'12 6.0 290 / 71022.8 8.1 9.4
2017-Apr-13 22:48N 40°06' W 070°18'6 6.1 290 / 91024.0 6.8 7.3
2017-Apr-13 21:49N 40°12' W 070°18'0 0.0 290 / 101023.9 8.4 7.1
2017-Apr-13 20:49N 40°12' W 070°18'1212.0 290 / 121024.7 7.6 7.4
2017-Apr-13 19:49N 40°24' W 070°18'1111.1 280 / 101028.6 7.7 7.3
2017-Apr-13 18:50N 40°30' W 070°30'6 6.0 290 / 111030.8 8.3 7.5
2017-Apr-13 17:50N 40°36' W 070°30'6 6.0 290 / 111031.9 7.1 7.4
2017-Apr-13 16:50N 40°42' W 070°30'5 4.5 300 / 131030.6 6.8 7.2
2017-Apr-13 15:50N 40°42' W 070°24'   310 / 131030.3 7.2 7.1
Track history (hours):
 
Tides and Currents Weather Stations Pressure Air Temp Water Temp Dewpoint Dewpoint Depression Visibility Wind Speed Wind Dir Waves Ship Positions

Oceanographic research ship Henry B. Bigelow (USA)

Ship's website: http://www.moc.noaa.gov/hb/

Last reported at 2017-Apr-23 15:00 UTC. Time now 2017-Apr-23 15:47 UTC.
Position N 42°30' W 066°36'.

Type: Other ship. MMSI: 369991000.

Wind from 350 at 19 knots

Barometer 1017.4 mb
Air temperature 4.8 ° C
Visibility: greater than 10.8 NM
Dewpoint 3.5 ° C
Water temperature 3.7 ° C

Date/timePositionNaut miles runAvg speedWind from/ knotsBaromVisibWave heightAir tempDewpointWater temp
2017-Apr-23 15:00N 42°30' W 066°36'4132.7 350 / 191017.410.8 4.8 3.5 3.7
2017-Apr-23 14:58N 42°30' W 066°42'4 4.5 360 / 141018.1 3.3 3.8
2017-Apr-23 13:59N 42°30' W 066°48'9 8.8 340 / 211016.5 3.3 4.1
2017-Apr-23 12:59N 42°30' W 067°00'7 7.5 330 / 211015.9 3.6 5.5
2017-Apr-23 11:59N 42°24' W 067°06'4 4.4 330 / 121015.5 3.8 5.2
2017-Apr-23 10:59N 42°24' W 067°12'4 4.4 350 / 221014.8 3.4 5.4
2017-Apr-23 09:59N 42°24' W 067°06'9 9.0 350 / 221013.5 3.5 5.2
2017-Apr-23 09:00N 42°24' W 066°54'7 7.5 340 / 191012.7 3.3 5.4
2017-Apr-23 08:00N 42°18' W 066°48'0 0.0 350 / 191011.9 2.9 5.5
2017-Apr-23 07:00N 42°18' W 066°48'6 6.0 350 / 231011.0 2.9 5.5
2017-Apr-23 06:00N 42°12' W 066°48'4 4.4 360 / 201010.8 3.1 5.6
2017-Apr-23 05:00N 42°12' W 066°42'7 5.9 010 / 211009.8 2.9 5.7
2017-Apr-23 03:44N 42°06' W 066°36'710.2 360 / 201009.4 3.5 6.0
2017-Apr-23 03:00N 42°00' W 066°30'416.7 310 / 91009.0 1.1 6.3 6.3 6.0
2017-Apr-23 02:44N 42°00' W 066°36'0 0.0 310 / 71009.3 5.3 6.1
2017-Apr-23 01:45N 42°00' W 066°36'0 0.0 340 / 31009.2 5.3 6.0
2017-Apr-23 00:45N 42°00' W 066°36'15 7.5 070 / 111008.8 5.8 6.0
2017-Apr-22 22:45N 42°12' W 066°24'4 4.4 080 / 251008.6 4.7 5.8
2017-Apr-22 21:45N 42°12' W 066°30'1114.3 090 / 251009.7 4.3 5.7
2017-Apr-22 21:00N 42°18' W 066°18'417.8 070 / 191009.8 1.1 4.8 4.8 3.9
2017-Apr-22 20:45N 42°18' W 066°24'0 0.0 080 / 241011.5 4.2 3.4
2017-Apr-22 19:46N 42°18' W 066°24'6 6.0 060 / 221011.8 3.9 4.2
2017-Apr-22 18:46N 42°24' W 066°24'6 6.0 090 / 261012.9 3.8 4.3
2017-Apr-22 17:46N 42°18' W 066°24'7 7.5 090 / 261013.3 3.9 4.2
2017-Apr-22 16:46N 42°12' W 066°18'7 7.5 070 / 231013.9 4.3 5.6
2017-Apr-22 15:46N 42°06' W 066°12'4 4.5 080 / 241014.1 4.9 5.3
2017-Apr-22 14:46N 42°06' W 066°18'9 9.1 090 / 211015.0 4.9 6.1
2017-Apr-22 13:47N 42°06' W 066°06'0 0.0 100 / 251015.8 5.7 5.8
2017-Apr-22 12:47N 42°06' W 066°06'0 0.0 070 / 121014.9 5.1 5.8
2017-Apr-22 11:47N 42°06' W 066°06'6 6.0 120 / 191015.5 6.1 5.6
2017-Apr-22 10:47N 42°00' W 066°06'0 0.0 110 / 211015.1 5.1 5.7
2017-Apr-22 09:47N 42°00' W 066°06'9 8.9 100 / 191015.0 5.7 5.8
2017-Apr-22 08:47N 42°00' W 065°54'4 4.5 120 / 201015.6 4.4 5.8
2017-Apr-22 07:48N 42°00' W 066°00'9 8.9 080 / 231015.3 4.7 5.8
2017-Apr-22 06:48N 42°00' W 065°48'0 0.0 110 / 151016.1 3.4 5.1
2017-Apr-22 05:48N 42°00' W 065°48'6 6.0 110 / 191016.1 3.1 2.5
2017-Apr-22 04:48N 41°54' W 065°48'4 4.5 120 / 141018.0 3.4 3.3
2017-Apr-22 03:48N 41°54' W 065°42'4 4.5 100 / 181018.0 3.4 3.4
2017-Apr-22 02:48N 41°54' W 065°48'7 7.5 090 / 191018.6 3.6 3.6
2017-Apr-22 01:48N 41°48' W 065°54'4 4.5 090 / 181018.9 3.9 3.5
2017-Apr-22 00:48N 41°48' W 066°00'4 5.6 070 / 101018.9 4.2 4.2
2017-Apr-22 00:00N 41°48' W 065°54'1512.7 090 / 191019.6 5.4 4.8 3.7 4.1
2017-Apr-21 22:49N 41°36' W 066°06'1312.8 080 / 211020.1 3.6 2.6
2017-Apr-21 21:49N 41°24' W 066°12'1212.0 080 / 141020.5 5.2 5.0
2017-Apr-21 20:49N 41°12' W 066°12'5 4.6 090 / 161020.2 5.9 5.8
2017-Apr-21 19:50N 41°12' W 066°18'0 0.0 080 / 151020.0 5.8 5.6
2017-Apr-21 18:50N 41°12' W 066°18'6 6.0 080 / 151020.2 5.7 5.8
2017-Apr-21 17:50N 41°18' W 066°18'0 0.0 080 / 161021.1 5.7 5.7
2017-Apr-21 16:50N 41°18' W 066°18'5 4.5 090 / 141021.3 5.7 5.8
2017-Apr-21 15:50N 41°18' W 066°24'1313.0 080 / 141021.7 5.6 5.6
2017-Apr-21 14:51N 41°30' W 066°18'6 6.0 060 / 161022.5 4.9 5.1
2017-Apr-21 13:51N 41°36' W 066°18'7 7.5 080 / 131022.5 4.9 4.2
2017-Apr-21 12:51N 41°42' W 066°24'6 6.0 060 / 181022.5 3.8 5.1
2017-Apr-21 11:51N 41°48' W 066°24'7 7.5 030 / 101022.9 4.2 5.8
2017-Apr-21 10:51N 41°42' W 066°30'0 0.0 090 / 201021.8 3.9 5.8
2017-Apr-21 09:51N 41°42' W 066°30'9 9.1 080 / 211021.1 3.8 5.9
2017-Apr-21 08:52N 41°42' W 066°42'9 9.0 090 / 201020.2 4.7 5.5
2017-Apr-21 07:52N 41°42' W 066°54'0 0.0 090 / 171020.5 4.8 5.7
2017-Apr-21 06:52N 41°42' W 066°54'7 8.6 090 / 211020.5 4.9 5.7
2017-Apr-21 06:00N 41°36' W 067°00'433.7 080 / 191020.3 5.4 7.5 4.4 5.8
2017-Apr-21 05:52N 41°36' W 067°06'1110.8 080 / 191020.7 5.6 5.8
2017-Apr-21 04:52N 41°30' W 067°18'6 6.0 090 / 221020.3 5.8 6.4
2017-Apr-21 03:52N 41°36' W 067°18'1314.8 090 / 161021.3 6.2 6.4
2017-Apr-21 03:00N 41°24' W 067°12'538.6 090 / 131021.1 5.4 7.0 5.4 6.3
2017-Apr-21 02:53N 41°24' W 067°18'7 7.5 090 / 151020.8 6.1 6.4
2017-Apr-21 01:53N 41°30' W 067°12'7 7.5 100 / 171020.9 5.8 6.4
2017-Apr-21 00:53N 41°24' W 067°06'8 3.8 080 / 151020.9 5.7 5.8
2017-Apr-20 22:53N 41°18' W 067°12'1515.3 100 / 91020.5 5.3 5.7
2017-Apr-20 21:54N 41°06' W 067°24'5 5.0 120 / 141020.8 5.6 5.7
2017-Apr-20 21:00N 41°06' W 067°18'545.2 110 / 91020.5 0.3 6.0 6.0 5.7
2017-Apr-20 20:54N 41°06' W 067°24'8 7.5 120 / 111021.0 5.6 5.7
2017-Apr-20 19:54N 41°12' W 067°18'1413.5 120 / 141021.0 5.9 5.6
2017-Apr-20 18:54N 41°12' W 067°00'8 7.5 180 / 91023.0 5.8 5.4
2017-Apr-20 17:54N 41°18' W 066°54'0 0.0 160 / 81023.8 6.6 5.8
2017-Apr-20 16:54N 41°18' W 066°54'8 7.6 130 / 81023.8 5.9 5.6
2017-Apr-20 15:55N 41°24' W 066°48'1111.8 120 / 51025.0 6.5 5.6
2017-Apr-20 15:00N 41°18' W 066°36'554.1 090 / 21023.810.8 9.5 7.0 5.5
2017-Apr-20 14:55N 41°18' W 066°42'0 0.0 100 / 31025.2 7.7 5.5
2017-Apr-20 13:55N 41°18' W 066°42'6 6.0 140 / 71025.6 5.8 5.5
2017-Apr-20 12:55N 41°12' W 066°42'1212.0 170 / 71025.7 6.1 5.7
2017-Apr-20 11:55N 41°00' W 066°42'5 4.5 140 / 41025.6 7.2 5.4
2017-Apr-20 10:55N 41°00' W 066°36'0 0.0 160 / 61025.7 6.5 5.3
2017-Apr-20 09:55N 41°00' W 066°36'5 4.6 100 / 61025.8 6.7 5.8
2017-Apr-20 08:56N 41°00' W 066°30'5 4.5 100 / 51026.2 6.6 6.2
2017-Apr-20 07:56N 41°00' W 066°24'0 0.0 130 / 91026.3 6.3 10.0
2017-Apr-20 06:56N 41°00' W 066°24'8 7.5 180 / 41027.0 5.9 8.7
2017-Apr-20 05:56N 40°54' W 066°30'0 0.0 160 / 51027.1 5.9 8.5
2017-Apr-20 04:56N 40°54' W 066°30'0 0.0 130 / 61028.0 5.8 8.2
2017-Apr-20 03:56N 40°54' W 066°30'8 7.5 140 / 81028.3 6.1 9.5
2017-Apr-20 02:56N 40°48' W 066°36'5 4.5 140 / 131028.6 5.3 10.0
2017-Apr-20 01:56N 40°48' W 066°42'5 4.5 110 / 81029.4 5.2 8.5
2017-Apr-20 00:56N 40°48' W 066°48'6 3.0 110 / 71030.5 4.9 7.7
2017-Apr-19 22:57N 40°42' W 066°48'0 0.0 080 / 61031.7 4.8 8.2
2017-Apr-19 21:57N 40°42' W 066°48'8 7.5 090 / 71031.9 5.2 7.0
2017-Apr-19 20:57N 40°36' W 066°54'5 4.6 060 / 81032.4 4.9 6.9
2017-Apr-19 19:57N 40°36' W 067°00'5 4.6 080 / 101032.2 4.0 5.8
2017-Apr-19 18:57N 40°36' W 067°06'0 0.0 060 / 111032.6 4.0 6.4
2017-Apr-19 17:57N 40°36' W 067°06'8 7.7 050 / 141032.6 3.3 5.8
2017-Apr-19 16:58N 40°42' W 067°12'5 4.5 040 / 161033.5 2.9 5.8
2017-Apr-19 15:58N 40°42' W 067°18'6 6.2 050 / 151034.2 2.7 5.7
2017-Apr-19 15:00N 40°36' W 067°18'5136.7 080 / 191034.610.8 4.3 0.8 5.6
2017-Apr-19 14:58N 40°36' W 067°24'5 4.6 070 / 161034.4 2.7 5.6
2017-Apr-19 13:58N 40°36' W 067°30'8 7.5 060 / 171034.9 3.4 5.9
2017-Apr-19 12:58N 40°30' W 067°36'5 4.6 070 / 171035.1 3.4 5.9
2017-Apr-19 11:59N 40°30' W 067°30'8 7.5 050 / 171034.8 3.9 6.7
2017-Apr-19 10:59N 40°24' W 067°36'0 0.0 060 / 161034.2 4.2 8.1
2017-Apr-19 09:59N 40°24' W 067°36'1110.9 030 / 201032.7 4.0 6.9
2017-Apr-19 08:59N 40°30' W 067°48'6 6.0 050 / 221032.4 3.8 5.6
2017-Apr-19 07:59N 40°24' W 067°48'1312.8 050 / 171032.6 3.8 5.7
2017-Apr-19 06:59N 40°36' W 067°42'6 6.0 030 / 131032.0 3.8 5.6
2017-Apr-19 05:59N 40°42' W 067°42'0 0.0 050 / 171032.1 3.5 5.8
2017-Apr-19 04:59N 40°42' W 067°42'1313.0 050 / 171032.0 3.3 5.5
2017-Apr-19 04:00N 40°54' W 067°48'0 0.0 050 / 121032.4 3.4 5.9
2017-Apr-19 03:00N 40°54' W 067°48'8 7.5 060 / 171032.3 3.0 5.9
2017-Apr-19 02:00N 40°48' W 067°54'6 6.0 060 / 181031.5 3.4 5.8
2017-Apr-19 01:00N 40°42' W 067°54'5 4.5 020 / 51031.5 3.8 6.1
2017-Apr-19 00:00N 40°42' W 068°00'6 5.9 020 / 141031.0 4.3 6.3
2017-Apr-18 22:59N 40°48' W 068°00'9 7.2 060 / 131030.2 4.3 6.4
2017-Apr-18 21:43N 40°48' W 068°12'5 6.3 060 / 161029.4 4.8 5.8
2017-Apr-18 21:00N 40°48' W 068°18'517.0 010 / 191030.4 5.4 5.3 4.7 6.0
2017-Apr-18 20:44N 40°48' W 068°24'9 9.1 360 / 181029.0 5.2 6.0
2017-Apr-18 19:44N 40°48' W 068°36'0 0.0 020 / 141029.5 5.4 6.3
2017-Apr-18 18:44N 40°48' W 068°36'8 7.5 040 / 151029.1 5.3 6.3
2017-Apr-18 17:44N 40°54' W 068°42'0 0.0 010 / 61029.2 6.2 6.4
2017-Apr-18 16:44N 40°54' W 068°42'0 0.0 360 / 91028.0 6.1 6.3
2017-Apr-18 15:45N 40°54' W 068°42'8 7.5 350 / 121028.2 6.2 6.3
2017-Apr-18 14:45N 41°00' W 068°48'8 7.5 360 / 121027.9 6.5 6.4
2017-Apr-18 13:45N 41°06' W 068°54'5 4.5 050 / 161027.3 6.5 7.0
2017-Apr-18 12:45N 41°06' W 068°48'0 0.0 030 / 171026.4 6.5 7.0
2017-Apr-18 11:45N 41°06' W 068°48'1110.8 010 / 141028.1 6.8 6.9
2017-Apr-18 10:45N 41°12' W 069°00'6 6.1 010 / 121018.1 6.3 6.7
2017-Apr-18 09:46N 41°18' W 069°00'8 7.5 050 / 121020.1 6.2 6.4
2017-Apr-18 08:46N 41°12' W 068°54'9 9.0 030 / 181016.6 6.6 7.1
2017-Apr-18 07:46N 41°12' W 068°42'5 4.5 040 / 111021.0 6.7 7.1
2017-Apr-18 06:46N 41°12' W 068°36'6 6.0 040 / 161015.4 6.7 7.0
2017-Apr-18 05:46N 41°18' W 068°36'0 0.0 040 / 161015.1 6.8 7.0
2017-Apr-18 04:46N 41°18' W 068°36'6 6.0 040 / 191014.6 6.8 7.2
2017-Apr-18 03:46N 41°24' W 068°36'8 7.6 010 / 181018.5 7.9 7.2
2017-Apr-18 02:47N 41°18' W 068°30'9 9.0 360 / 101014.5 7.9 7.3
2017-Apr-18 01:47N 41°18' W 068°18'0 0.0 350 / 51016.2 8.3 7.7
2017-Apr-18 00:47N 41°18' W 068°18'11 5.4 300 / 51011.4 8.4 6.8
2017-Apr-17 22:47N 41°12' W 068°06'5 4.5 260 / 111008.9 8.4 6.3
2017-Apr-17 21:47N 41°12' W 068°00'0 0.0 240 / 201022.2 8.1 6.5
2017-Apr-17 21:00N 41°12' W 068°00'837.5 250 / 131011.9 5.4 11.0 7.2 6.3
2017-Apr-17 20:48N 41°18' W 068°06'1110.8 240 / 121017.6 7.6 6.3
2017-Apr-17 19:48N 41°24' W 068°18'7 7.5 260 / 81021.3 8.8 6.7
2017-Apr-17 18:48N 41°30' W 068°24'7 7.5 260 / 131020.5 9.1 7.5
2017-Apr-17 17:48N 41°36' W 068°30'0 0.0 260 / 171027.6 9.3 7.6
2017-Apr-17 16:48N 41°36' W 068°30'4 4.6 260 / 161015.5 9.1 7.4
2017-Apr-17 15:49N 41°36' W 068°36'7 7.5 250 / 171022.8 9.3 6.9
2017-Apr-17 14:49N 41°42' W 068°42'0 0.0 260 / 141021.0 9.3 6.8
2017-Apr-17 13:49N 41°42' W 068°42'4 4.5 270 / 211020.9 14.4 6.7
2017-Apr-17 12:49N 41°42' W 068°48'0 0.0 260 / 201023.1 9.5 6.9
2017-Apr-17 11:49N 41°42' W 068°48'7 7.6 230 / 141024.3 10.2 6.8
2017-Apr-17 10:50N 41°48' W 068°54'7 7.5 250 / 141026.8 9.0 6.8
2017-Apr-17 09:50N 41°54' W 069°00'0 0.0 250 / 151030.1 9.0 7.0
2017-Apr-17 08:50N 41°54' W 069°00'1110.8 270 / 151029.1 10.0 6.9
2017-Apr-17 07:50N 41°48' W 069°12'9 9.1 260 / 211037.2 9.9 6.7
2017-Apr-17 06:51N 41°48' W 069°24'1313.4 250 / 161040.0 7.7 6.2
2017-Apr-17 05:51N 41°48' W 069°42'7 7.5 240 / 161044.1 8.9 5.8
2017-Apr-17 04:51N 41°42' W 069°48'0 0.0 290 / 191040.9 18.1 6.5
2017-Apr-17 03:51N 41°42' W 069°48'7 7.5 250 / 151042.3 16.6 6.2
2017-Apr-17 02:51N 41°48' W 069°54'6 6.1 220 / 241045.0 15.9 6.4
2017-Apr-17 01:52N 41°42' W 069°54'0 0.0 220 / 121050.6 11.3 5.8
2017-Apr-17 00:52N 41°42' W 069°54'19 9.5 230 / 211057.2 10.8 6.1
2017-Apr-16 22:52N 41°36' W 069°30'4 4.6 200 / 181077.4 8.1 6.2
2017-Apr-16 21:53N 41°36' W 069°24'0 0.0 190 / 161078.9 8.4 6.0
2017-Apr-16 20:53N 41°36' W 069°24'1212.0 170 / 101082.2 7.9 6.0
2017-Apr-16 19:53N 41°24' W 069°24'0 0.0 220 / 171086.5 8.5 5.3
2017-Apr-16 18:54N 41°24' W 069°24'0 0.0 230 / 201081.3 7.6 5.5
2017-Apr-16 17:54N 41°24' W 069°24'0 0.0 220 / 241082.7 7.6 5.5
2017-Apr-16 16:54N 41°24' W 069°24'0 0.0 220 / 211084.7 7.7 5.3
2017-Apr-16 15:54N 41°24' W 069°24'5 5.0 220 / 211089.2 7.5 5.2
2017-Apr-16 15:00N 41°24' W 069°18'554.0 230 / 241013.1 0.0 8.7 8.7 5.1
2017-Apr-16 14:55N 41°24' W 069°24'8 7.5 230 / 261096.8 7.0 5.1
2017-Apr-16 13:55N 41°18' W 069°18'6 6.0 220 / 17 6.8 5.1
2017-Apr-16 12:55N 41°12' W 069°18'0 0.0 220 / 11 6.8 5.4
2017-Apr-16 11:55N 41°12' W 069°18'0 0.0 230 / 19 7.1 5.4
2017-Apr-16 10:56N 41°12' W 069°18'0 0.0 250 / 9 7.6 5.4
2017-Apr-16 09:56N 41°12' W 069°18'6 6.0 260 / 211061.5 8.3 5.4
2017-Apr-16 08:56N 41°06' W 069°18'0 0.0 210 / 141019.6 9.0 5.6
2017-Apr-16 07:57N 41°06' W 069°18'0 0.0 230 / 251020.4 9.0 5.6
2017-Apr-16 06:57N 41°06' W 069°18'0 0.0 220 / 291020.5 9.0 5.6
2017-Apr-16 05:57N 41°06' W 069°18'8 7.6 210 / 261020.6 8.8 5.5
2017-Apr-16 04:58N 41°00' W 069°12'6 6.0 200 / 231022.0 8.3 6.1
2017-Apr-16 03:58N 41°06' W 069°12'1212.2 210 / 231022.8 8.1 6.0
2017-Apr-16 02:59N 40°54' W 069°12'5 4.6 200 / 201024.1 8.5 5.9
2017-Apr-16 02:00N 40°54' W 069°18'6 4.7 210 / 211024.6 8.4 6.1
2017-Apr-16 00:44N 40°48' W 069°18'11 5.5 200 / 221024.1 8.5 5.9
2017-Apr-15 22:46N 40°42' W 069°06'0 0.0 210 / 141025.7 8.8 6.5
2017-Apr-15 21:46N 40°42' W 069°06'0 0.0 180 / 91029.5 8.6 6.6
2017-Apr-15 20:47N 40°42' W 069°06'0 0.0 190 / 141028.4 8.0 6.8
2017-Apr-15 19:47N 40°42' W 069°06'0 0.0 200 / 151022.8 7.7 7.0
2017-Apr-15 18:48N 40°42' W 069°06'5 4.6 220 / 161035.2 8.8 6.9
2017-Apr-15 17:49N 40°42' W 069°12'0 0.0 220 / 151037.6 8.4 7.1
2017-Apr-15 16:49N 40°42' W 069°12'8 7.7 230 / 131038.4 9.4 6.6
2017-Apr-15 15:50N 40°36' W 069°18'5 5.5 220 / 81038.4 8.6 6.8
2017-Apr-15 15:00N 40°36' W 069°12'527.3 210 / 91030.610.8 8.9 6.3 6.6
2017-Apr-15 14:50N 40°36' W 069°18'0 0.0 240 / 121034.2 7.6 6.6
2017-Apr-15 13:50N 40°36' W 069°18'1515.2 260 / 71033.6 7.1 6.3
2017-Apr-15 12:51N 40°30' W 069°00'0 0.0 270 / 81032.9 7.1 6.4
2017-Apr-15 11:51N 40°30' W 069°00'5 4.6 230 / 51031.3 6.6 6.3
2017-Apr-15 10:52N 40°30' W 068°54'1514.9 270 / 81030.4 6.7 6.3
2017-Apr-15 09:52N 40°36' W 068°36'0 0.0 290 / 91029.1 6.2 5.9
2017-Apr-15 08:52N 40°36' W 068°36'0 0.0 290 / 101028.1 6.3 5.8
2017-Apr-15 07:53N 40°36' W 068°36'1212.0 300 / 91027.3 6.3 6.1
2017-Apr-15 06:53N 40°24' W 068°36'0 0.0 300 / 71026.5 6.6 6.9
2017-Apr-15 05:53N 40°24' W 068°36'8 7.7 280 / 81026.0 6.1 7.0
2017-Apr-15 04:54N 40°18' W 068°42'0 0.0 290 / 91025.9 6.3 7.6
2017-Apr-15 03:54N 40°18' W 068°42'5 4.7 320 / 61025.3 6.6 8.0
2017-Apr-15 02:55N 40°18' W 068°48'6 6.0 010 / 61027.0 6.6 8.2
2017-Apr-15 01:55N 40°12' W 068°48'5 4.6 350 / 81025.7 6.5 8.5
2017-Apr-15 00:55N 40°12' W 068°42'910.0 1024.7 6.6
2017-Apr-15 00:00N 40°12' W 068°30'5 4.3 330 / 91028.8 5.4 8.0 5.6 8.5
2017-Apr-14 22:56N 40°12' W 068°36'6 6.1 330 / 81025.7 7.5 8.3
2017-Apr-14 21:57N 40°06' W 068°36'5 4.8 290 / 41024.0 8.3 8.5
2017-Apr-14 21:00N 40°06' W 068°30'591.8 310 / 91026.610.8 9.1 7.9 8.5
2017-Apr-14 20:57N 40°06' W 068°36'1413.8 310 / 71027.9 9.7 8.8
2017-Apr-14 19:57N 40°06' W 068°54'9 9.3 330 / 51030.1 7.4 7.9
2017-Apr-14 18:58N 40°06' W 069°06'0 0.0 340 / 41034.0 7.4 7.6
2017-Apr-14 17:58N 40°06' W 069°06'5 4.6 330 / 51033.1 8.3 7.7
2017-Apr-14 16:58N 40°06' W 069°12'9 9.3 340 / 51034.7 7.1 7.0
2017-Apr-14 15:59N 40°06' W 069°24'0 0.0 310 / 31033.7 8.3 7.5
2017-Apr-14 15:00N 40°06' W 069°24'0 0.0 010 / 91029.310.8 9.5 6.1 7.0
2017-Apr-14 14:59N 40°06' W 069°24'1313.1 010 / 71032.1 7.0 7.1
2017-Apr-14 14:00N 39°54' W 069°30'5 4.6 360 / 101034.6 6.7 6.6
2017-Apr-14 13:00N 39°54' W 069°36'0 0.0 350 / 101032.2 9.0 6.5
2017-Apr-14 11:44N 39°54' W 069°36'5 4.6 350 / 91028.7 7.0 6.6
2017-Apr-14 10:44N 39°54' W 069°42'5 4.7 350 / 111027.8 6.8 7.0
2017-Apr-14 09:45N 39°54' W 069°48'0 0.0 340 / 71026.7 6.6 7.0
2017-Apr-14 08:45N 39°54' W 069°48'1111.0 320 / 51025.8 6.6 6.9
2017-Apr-14 07:45N 40°00' W 070°00'8 7.7 310 / 61025.1 6.3 6.8
2017-Apr-14 06:46N 40°06' W 069°54'5 6.0 310 / 91024.1 6.5 6.9
2017-Apr-14 06:00N 40°06' W 070°00'519.7 300 / 91027.0 5.4 7.5 6.5 6.7
2017-Apr-14 05:46N 40°06' W 070°06'0 0.0 290 / 81024.3 7.7 6.7
2017-Apr-14 04:46N 40°06' W 070°06'8 7.7 280 / 31024.6 6.8 7.5
2017-Apr-14 03:47N 40°00' W 070°12'5 4.6 280 / 81024.5 7.0 7.3
2017-Apr-14 02:47N 40°00' W 070°18'0 0.0 260 / 41024.1 7.4 7.6
2017-Apr-14 01:47N 40°00' W 070°18'6 6.1 320 / 91022.6 7.4 8.3
2017-Apr-14 00:48N 39°54' W 070°18'12 6.0 290 / 71022.8 8.1 9.4
2017-Apr-13 22:48N 40°06' W 070°18'6 6.1 290 / 91024.0 6.8 7.3
2017-Apr-13 21:49N 40°12' W 070°18'0 0.0 290 / 101023.9 8.4 7.1
2017-Apr-13 20:49N 40°12' W 070°18'1212.0 290 / 121024.7 7.6 7.4
2017-Apr-13 19:49N 40°24' W 070°18'1111.1 280 / 101028.6 7.7 7.3
2017-Apr-13 18:50N 40°30' W 070°30'6 6.0 290 / 111030.8 8.3 7.5
2017-Apr-13 17:50N 40°36' W 070°30'6 6.0 290 / 111031.9 7.1 7.4
2017-Apr-13 16:50N 40°42' W 070°30'5 4.5 300 / 131030.6 6.8 7.2
2017-Apr-13 15:50N 40°42' W 070°24'   310 / 131030.3 7.2 7.1

Dump ship's entire track history